KEEN/EEN METAR and TAF weather

Enter ICAO airport designator
Station Type Date Time Source
KEEN METAR 2019/06/16 05:56 UTC NOAA

KEEN 160556Z AUTO 21007KT 10SM -RA OVC060 19/13 A2988 RMK AO2 RAB10 SLP120 6//// T01940128 10233 20194 55005 PNO $


Station Type Date Time Source
KEEN Decoded METAR 2019/06/16 05:56 UTC NOAA

Keene, Dillant-Hopkins Airport, NH, United States (KEEN) 42-54N 072-16W
Jun 16, 2019 - 01:56 AM EDT / 2019.06.16 0556 UTC
Wind: from the SSW (210 degrees) at 8 MPH (7 KT):0
Visibility: 10 mile(s):0
Sky conditions: overcast
Weather: light rain
Temperature: 66.9 F (19.4 C)
Dew Point: 55.0 F (12.8 C)
Relative Humidity: 65%
Pressure (altimeter): 29.88 in. Hg (1011 hPa)
Pressure tendency: 0.01 inches (0.5 hPa) lower than three hours ago
ob: KEEN 160556Z AUTO 21007KT 10SM -RA OVC060 19/13 A2988 RMK AO2 RAB10 SLP120 6//// T01940128 10233 20194 55005 PNO
cycle: 6

Station Type Date Time Source
KEEN TAF UTC NOAA

Error!

Example: see airport list